Glen Ullin, North Dakota
Current Conditions -  °F | °C
As of 7:55 PM on Saturday 25 Oct 2014 (Local Time) from KD57 Reporting Station
Clear Clear  
Wind Chill: 52°   Ceiling: Unl
Heat Index: 52°   Visibility: 10mi
Dew Point: 28°   Wind: 13mph
Humidity: 41%   Direction: 130°SE
Pressure: 29.93"   Gusts: NA
Location:  46.82°N, 101.83°W
Report Text: KD57 260155Z AUTO 13011KT 10SM CLR 11/M02 A2993 RMK AO2 TSNO
Loading
Personal Weather Stations






























Interactive Weather Map
Tropical Storm Tracking
New forecast layout! Learn more

10-Day Weather Forecast

Advertisements
Track Severe Weather on mobile